Terminal Aerodrome Forecast
Issued by NWS

Home | Current Version | Previous Version | Text Only | Print | Product List | Glossary On
Versions: 1 2 3 4 5 6 7 8 9 10 11 12 13
000
FTUS45 KABQ 291128
TAFTCC
TAF
KTCC 291128Z 2912/3012 04008KT P6SM SCT015
     FM291600 06010G18KT P6SM SCT250
     FM292200 08011KT P6SM VCTS SCT070CB BKN130
      TEMPO 2922/3001 VRB15G25KT -TSRA BKN050CB
     FM300600 04008KT P6SM -SHRA BKN050
     FM300900 04009KT P6SM SCT025 BKN050=

USA.gov is the U.S. government's official web portal to all federal, state and local government web resources and services.